Time;durP1;ratioP1;P1;durP2;ratioP2;P2;SDS_P1;SDS_P2;PMS_P1;PMS_P2;Temp;Humidity;BMP_temperature;BMP_pressure;BME280_temperature;BME280_humidity;BME280_pressure;Samples;Min_cycle;Max_cycle;Signal;HPM_P1;HPM_P2
2022/10/20 00:01:50;;;;;;;6.25;4.00;;;16.10;56.50;;;;;;5089619;28;20119;-81
2022/10/20 00:04:16;;;;;;;5.82;3.70;;;16.00;56.10;;;;;;5074002;28;20082;-80
2022/10/20 00:06:42;;;;;;;7.65;4.30;;;15.90;56.10;;;;;;5073174;28;20021;-80
2022/10/20 00:09:07;;;;;;;9.77;4.60;;;15.80;56.30;;;;;;5073268;28;20032;-80
2022/10/20 00:11:33;;;;;;;9.23;4.32;;;15.90;55.80;;;;;;5075088;28;20031;-81
2022/10/20 00:14:01;;;;;;;7.93;4.45;;;16.10;55.70;;;;;;5073206;28;20039;-79
2022/10/20 00:16:29;;;;;;;8.25;4.60;;;16.30;55.40;;;;;;5084484;28;20017;-85
2022/10/20 00:18:56;;;;;;;6.75;4.53;;;16.20;56.00;;;;;;5093731;28;20024;-81
2022/10/20 00:21:24;;;;;;;6.88;4.22;;;16.10;56.10;;;;;;5080957;28;20023;-81
2022/10/20 00:23:50;;;;;;;6.53;4.15;;;16.10;56.40;;;;;;5073262;28;20028;-80
2022/10/20 00:26:21;;;;;;;7.88;4.10;;;16.20;56.70;;;;;;5075796;28;20451;-81
2022/10/20 00:28:48;;;;;;;7.55;3.95;;;16.30;56.10;;;;;;5074014;28;20102;-80
2022/10/20 00:31:14;;;;;;;7.03;4.20;;;16.30;56.00;;;;;;5072436;28;20428;-84
2022/10/20 00:33:40;;;;;;;8.60;4.43;;;16.40;55.70;;;;;;5074381;28;20081;-82
2022/10/20 00:36:09;;;;;;;6.82;4.40;;;16.30;56.40;;;;;;5075534;28;20017;-93
2022/10/20 00:38:35;;;;;;;9.05;4.28;;;16.30;56.30;;;;;;5073981;28;20027;-81
2022/10/20 00:41:05;;;;;;;6.20;4.40;;;16.30;56.30;;;;;;5089847;28;20021;-82
2022/10/20 00:43:56;;;;;;;5.50;3.78;;;16.20;56.50;;;;;;5074316;28;20024;-81
2022/10/20 00:46:29;;;;;;;8.23;4.53;;;16.40;56.70;;;;;;5084118;28;20052;-90
2022/10/20 00:48:59;;;;;;;8.55;4.18;;;16.40;56.70;;;;;;5073494;28;20048;-80
2022/10/20 00:51:28;;;;;;;7.28;4.72;;;16.40;56.10;;;;;;5072510;28;20016;-83
2022/10/20 00:54:08;;;;;;;10.18;4.60;;;16.30;56.30;;;;;;5072915;28;20486;-82
2022/10/20 00:56:39;;;;;;;6.72;4.30;;;16.30;56.60;;;;;;5082278;28;20032;-81
2022/10/20 00:59:05;;;;;;;6.97;4.57;;;16.30;56.30;;;;;;5091772;28;20062;-81
2022/10/20 01:01:31;;;;;;;7.55;4.38;;;16.30;56.40;;;;;;5093841;28;20115;-82
2022/10/20 01:03:58;;;;;;;9.57;4.40;;;16.20;56.60;;;;;;5093001;28;20374;-82
2022/10/20 01:06:23;;;;;;;6.40;4.13;;;16.30;56.60;;;;;;5082961;28;20528;-81
2022/10/20 01:08:53;;;;;;;7.10;4.70;;;16.30;56.50;;;;;;5073371;28;20032;-82
2022/10/20 01:11:22;;;;;;;6.57;4.53;;;16.30;56.20;;;;;;5072462;28;20374;-80
2022/10/20 01:14:11;;;;;;;7.22;4.38;;;16.30;55.80;;;;;;5073724;28;20035;-81
2022/10/20 01:17:02;;;;;;;8.10;4.88;;;16.20;55.90;;;;;;5073143;28;20024;-80
2022/10/20 01:19:47;;;;;;;8.30;4.43;;;16.30;55.90;;;;;;5071736;28;20032;-83
2022/10/20 01:22:36;;;;;;;7.45;5.20;;;16.40;55.70;;;;;;5071829;28;20358;-80
2022/10/20 01:25:13;;;;;;;6.72;4.72;;;16.30;55.60;;;;;;5071966;28;20419;-80
2022/10/20 01:27:51;;;;;;;8.15;4.93;;;16.20;55.90;;;;;;5073018;28;20024;-81
2022/10/20 01:30:19;;;;;;;7.25;4.90;;;16.20;56.00;;;;;;5073429;28;20028;-80
2022/10/20 01:33:23;;;;;;;6.95;4.68;;;16.20;56.00;;;;;;5072903;28;20032;-80
2022/10/20 01:35:53;;;;;;;7.03;4.72;;;16.20;55.90;;;;;;5066531;28;20075;-82
2022/10/20 01:38:30;;;;;;;8.00;5.03;;;16.20;56.20;;;;;;5073124;28;20580;-79
2022/10/20 01:41:00;;;;;;;7.30;5.03;;;16.00;56.10;;;;;;5071319;28;20028;-80
2022/10/20 01:43:30;;;;;;;8.02;4.93;;;16.00;56.30;;;;;;5072143;28;20017;-80
2022/10/20 01:45:57;;;;;;;8.05;4.93;;;16.00;56.40;;;;;;5071623;28;20048;-80
2022/10/20 01:48:27;;;;;;;7.05;4.97;;;15.80;56.50;;;;;;5071347;28;20058;-82
2022/10/20 01:50:54;;;;;;;7.88;5.07;;;15.70;56.30;;;;;;5072250;28;20023;-80
2022/10/20 01:53:19;;;;;;;7.50;5.03;;;15.80;56.00;;;;;;5072732;28;20486;-79
2022/10/20 01:55:48;;;;;;;7.70;5.25;;;15.80;56.20;;;;;;5071633;28;20031;-80
2022/10/20 01:58:53;;;;;;;8.48;4.70;;;15.60;56.00;;;;;;5072697;28;20435;-81
2022/10/20 02:01:34;;;;;;;7.95;4.93;;;15.50;56.60;;;;;;5072123;28;20028;-80
2022/10/20 02:04:01;;;;;;;;;;;15.50;56.70;;;;;;5072062;28;20412;-81
2022/10/20 02:06:45;;;;;;;7.07;4.88;;;15.50;56.60;;;;;;5071368;28;20269;-80
2022/10/20 02:09:22;;;;;;;7.30;4.70;;;15.20;56.90;;;;;;5072201;28;20033;-81
2022/10/20 02:12:06;;;;;;;8.70;5.70;;;14.90;57.10;;;;;;5082008;28;20019;-79
2022/10/20 02:14:32;;;;;;;8.57;5.28;;;14.60;57.80;;;;;;5092518;28;20028;-79
2022/10/20 02:17:11;;;;;;;9.80;5.20;;;14.60;57.80;;;;;;5091479;28;20474;-79
2022/10/20 02:19:43;;;;;;;8.57;5.10;;;14.90;57.50;;;;;;5092244;28;20462;-79
2022/10/20 02:22:12;;;;;;;7.47;4.55;;;15.10;57.50;;;;;;5075681;28;20490;-80
2022/10/20 02:24:40;;;;;;;7.15;4.60;;;15.20;57.20;;;;;;5072710;28;20028;-79
2022/10/20 02:27:19;;;;;;;8.88;4.82;;;15.20;56.90;;;;;;5070984;28;20074;-78
2022/10/20 02:30:17;;;;;;;10.25;5.40;;;15.30;56.80;;;;;;5072450;28;20020;-80
2022/10/20 02:32:48;;;;;;;8.32;4.90;;;15.40;57.10;;;;;;5009335;28;20114;-79
2022/10/20 02:35:19;;;;;;;7.38;4.40;;;15.50;56.90;;;;;;4996577;28;20446;-80
2022/10/20 02:37:45;;;;;;;7.88;4.55;;;15.60;56.20;;;;;;5014386;28;20596;-80
2022/10/20 02:40:11;;;;;;;9.20;5.47;;;15.60;56.20;;;;;;4997592;28;20061;-79
2022/10/20 02:42:39;;;;;;;8.43;4.70;;;15.60;56.10;;;;;;4979798;28;20369;-81
2022/10/20 02:45:06;;;;;;;7.47;4.72;;;15.50;56.20;;;;;;4994863;28;20026;-79
2022/10/20 02:47:32;;;;;;;7.68;4.60;;;15.60;56.00;;;;;;4977831;28;20088;-79
2022/10/20 02:49:58;;;;;;;6.95;4.60;;;15.50;56.30;;;;;;4994691;28;20042;-80
2022/10/20 02:52:23;;;;;;;9.13;5.25;;;15.50;56.20;;;;;;4995842;28;20017;-81
2022/10/20 02:54:49;;;;;;;8.30;4.90;;;15.50;56.40;;;;;;5014408;28;20084;-79
2022/10/20 02:57:15;;;;;;;8.07;4.88;;;15.40;56.80;;;;;;5013385;28;20037;-91
2022/10/20 02:59:41;;;;;;;8.07;4.93;;;15.40;56.70;;;;;;5013107;28;20041;-82
2022/10/20 03:02:07;;;;;;;8.85;5.00;;;15.40;57.00;;;;;;4997355;28;20574;-79
2022/10/20 03:04:33;;;;;;;7.13;4.78;;;15.40;56.90;;;;;;4997492;28;20030;-82
2022/10/20 03:06:58;;;;;;;7.90;4.80;;;15.40;56.90;;;;;;4997666;28;20109;-79
2022/10/20 03:09:24;;;;;;;9.15;4.90;;;15.40;56.80;;;;;;5092470;28;20059;-84
2022/10/20 03:11:50;;;;;;;7.72;4.90;;;15.40;56.90;;;;;;5094220;28;20050;-87
2022/10/20 03:14:15;;;;;;;8.77;5.00;;;15.30;57.10;;;;;;5095508;28;20020;-80
2022/10/20 03:16:41;;;;;;;10.10;4.80;;;15.30;56.80;;;;;;5095678;28;20024;-85
2022/10/20 03:19:07;;;;;;;9.88;5.05;;;15.30;57.00;;;;;;5079419;28;20028;-80
2022/10/20 03:21:32;;;;;;;12.27;6.30;;;15.30;56.80;;;;;;5074098;28;20024;-79
2022/10/20 03:23:58;;;;;;;9.38;5.38;;;15.30;56.80;;;;;;5073929;28;20021;-79
2022/10/20 03:26:24;;;;;;;9.93;5.68;;;15.20;57.20;;;;;;5075294;28;20148;-79
2022/10/20 03:28:49;;;;;;;11.50;5.50;;;15.10;57.10;;;;;;5073127;28;20082;-79
2022/10/20 03:31:15;;;;;;;9.50;5.57;;;15.10;57.20;;;;;;5074018;28;20024;-80
2022/10/20 03:33:41;;;;;;;10.65;5.20;;;14.90;57.60;;;;;;5073916;28;20032;-80
2022/10/20 03:36:07;;;;;;;7.95;5.10;;;14.90;57.20;;;;;;5074935;28;20038;-80
2022/10/20 03:38:32;;;;;;;8.40;5.65;;;14.90;57.40;;;;;;5084355;28;20028;-80
2022/10/20 03:40:58;;;;;;;9.20;5.90;;;15.10;57.30;;;;;;5093669;28;20024;-80
2022/10/20 03:43:24;;;;;;;9.43;5.43;;;15.10;56.80;;;;;;5093787;28;20016;-80
2022/10/20 03:45:49;;;;;;;9.90;5.82;;;15.10;57.00;;;;;;5094909;28;20024;-80
2022/10/20 03:48:15;;;;;;;11.43;5.88;;;15.20;56.90;;;;;;5092415;28;20051;-80
2022/10/20 03:50:42;;;;;;;10.15;6.32;;;15.10;56.80;;;;;;5093562;28;20027;-80
2022/10/20 03:53:12;;;;;;;9.70;5.47;;;15.10;56.90;;;;;;5095037;28;20063;-80
2022/10/20 03:55:37;;;;;;;7.20;5.03;;;15.20;56.50;;;;;;5094972;28;20016;-80
2022/10/20 03:58:03;;;;;;;20.73;13.38;;;15.20;56.60;;;;;;5091530;28;20019;-80
2022/10/20 04:00:29;;;;;;;30.73;23.00;;;15.30;56.70;;;;;;5074658;28;20074;-80
2022/10/20 04:02:54;;;;;;;23.00;17.58;;;15.30;56.70;;;;;;5073042;28;20031;-81
2022/10/20 04:05:20;;;;;;;15.32;11.40;;;15.40;57.00;;;;;;5073218;28;20122;-77
2022/10/20 04:07:46;;;;;;;8.32;5.97;;;15.40;56.50;;;;;;5072501;28;20055;-80
2022/10/20 04:10:13;;;;;;;12.98;6.53;;;15.40;56.40;;;;;;5089864;28;20119;-79
2022/10/20 04:12:39;;;;;;;12.70;6.57;;;15.50;56.10;;;;;;5074446;28;20029;-80
2022/10/20 04:15:06;;;;;;;8.25;5.45;;;15.50;55.90;;;;;;5074298;28;20031;-80
2022/10/20 04:17:32;;;;;;;8.70;6.15;;;15.50;55.40;;;;;;5073679;28;20025;-80
2022/10/20 04:19:58;;;;;;;8.55;5.53;;;14.80;57.00;;;;;;5074187;28;20021;-79
2022/10/20 04:22:23;;;;;;;8.30;5.75;;;14.20;58.50;;;;;;5072583;28;20016;-80
2022/10/20 04:24:49;;;;;;;9.45;5.72;;;13.70;60.00;;;;;;5072806;28;20025;-79
2022/10/20 04:27:15;;;;;;;12.68;5.57;;;13.90;59.00;;;;;;5077127;28;20019;-80
2022/10/20 04:29:40;;;;;;;9.13;5.30;;;14.40;57.60;;;;;;5092767;28;20023;-80
2022/10/20 04:32:06;;;;;;;7.50;5.47;;;14.60;56.80;;;;;;5094198;28;20023;-80
2022/10/20 04:34:32;;;;;;;10.05;5.57;;;14.70;57.30;;;;;;5094151;28;20020;-80
2022/10/20 04:36:57;;;;;;;9.05;5.70;;;14.80;56.50;;;;;;5091555;28;20024;-79
2022/10/20 04:39:24;;;;;;;10.45;5.15;;;15.00;55.60;;;;;;5072475;28;20043;-80
2022/10/20 04:41:50;;;;;;;9.38;5.60;;;15.20;54.80;;;;;;5072598;28;20020;-80
2022/10/20 04:44:15;;;;;;;9.98;5.75;;;15.00;55.40;;;;;;5073222;28;20371;-79
2022/10/20 04:46:41;;;;;;;10.93;5.45;;;14.90;56.10;;;;;;5080707;28;20016;-80
2022/10/20 04:49:07;;;;;;;8.90;5.50;;;15.00;55.00;;;;;;5072930;28;20052;-79
2022/10/20 04:51:33;;;;;;;9.05;5.63;;;14.90;54.30;;;;;;5079398;28;20016;-78
2022/10/20 04:53:59;;;;;;;8.25;5.88;;;14.80;54.20;;;;;;5091730;28;20027;-80
2022/10/20 04:56:25;;;;;;;10.60;5.53;;;14.70;54.70;;;;;;5094015;28;20020;-77
2022/10/20 04:58:53;;;;;;;10.00;6.25;;;14.50;56.00;;;;;;5090267;28;20020;-78
2022/10/20 05:01:20;;;;;;;10.90;5.93;;;14.50;55.10;;;;;;5092105;28;20048;-78
2022/10/20 05:03:48;;;;;;;13.18;6.05;;;14.40;54.70;;;;;;5071880;28;20031;-78
2022/10/20 05:06:18;;;;;;;10.85;5.68;;;14.40;54.10;;;;;;5092555;28;20351;-78
2022/10/20 05:08:46;;;;;;;7.65;5.50;;;14.50;54.40;;;;;;5082210;28;20084;-79
2022/10/20 05:11:13;;;;;;;9.50;6.03;;;14.40;54.80;;;;;;5092822;28;20024;-80
2022/10/20 05:13:39;;;;;;;8.15;5.60;;;14.40;54.40;;;;;;5090833;28;20020;-79
2022/10/20 05:16:05;;;;;;;9.00;5.75;;;14.30;54.30;;;;;;5091814;28;20343;-80
2022/10/20 05:18:32;;;;;;;8.15;5.65;;;14.30;54.50;;;;;;5091152;28;20024;-78
2022/10/20 05:20:57;;;;;;;9.30;5.85;;;14.40;54.60;;;;;;5092273;28;20024;-78
2022/10/20 05:23:24;;;;;;;11.00;6.35;;;14.20;54.50;;;;;;5092014;28;20016;-78
2022/10/20 05:25:50;;;;;;;8.55;5.25;;;14.20;54.60;;;;;;5089795;28;20013;-77
2022/10/20 05:28:15;;;;;;;11.90;6.70;;;14.10;55.10;;;;;;5091156;28;20385;-79
2022/10/20 05:30:41;;;;;;;10.48;5.75;;;14.20;54.70;;;;;;5092805;28;20008;-79
2022/10/20 05:33:07;;;;;;;9.88;6.13;;;14.20;54.40;;;;;;5092281;28;20433;-79
2022/10/20 05:35:32;;;;;;;8.95;5.88;;;14.20;54.80;;;;;;5090403;28;20035;-79
2022/10/20 05:37:58;;;;;;;13.52;6.15;;;14.10;54.80;;;;;;5091602;28;20039;-78
2022/10/20 05:40:24;;;;;;;11.85;6.80;;;14.20;55.50;;;;;;5091550;28;20437;-78
2022/10/20 05:42:49;;;;;;;11.77;6.25;;;14.30;55.60;;;;;;5089838;28;20118;-78
2022/10/20 05:45:15;;;;;;;8.27;5.97;;;14.30;55.70;;;;;;5088952;28;20016;-80
2022/10/20 05:47:41;;;;;;;8.35;5.78;;;14.50;55.30;;;;;;5089288;28;20736;-78
2022/10/20 05:50:08;;;;;;;10.02;5.82;;;14.50;55.00;;;;;;5091329;28;20028;-79
2022/10/20 05:52:35;;;;;;;8.93;5.90;;;14.60;54.60;;;;;;5091198;28;20507;-79
2022/10/20 05:55:01;;;;;;;10.38;6.35;;;14.60;54.60;;;;;;5090013;28;20044;-80
2022/10/20 05:57:26;;;;;;;10.27;6.22;;;14.60;55.00;;;;;;5091593;28;20028;-80
2022/10/20 05:59:52;;;;;;;10.05;5.80;;;14.60;55.10;;;;;;5092804;28;20014;-80
2022/10/20 06:02:18;;;;;;;13.30;6.20;;;14.70;55.40;;;;;;5090854;28;20028;-79
2022/10/20 06:04:43;;;;;;;12.38;6.97;;;14.80;55.60;;;;;;5072775;28;20106;-80
2022/10/20 06:07:09;;;;;;;9.10;5.90;;;14.80;55.50;;;;;;5083341;28;20400;-80
2022/10/20 06:09:36;;;;;;;9.75;5.72;;;15.00;55.40;;;;;;5092188;28;20522;-80
2022/10/20 06:12:02;;;;;;;9.63;7.00;;;15.10;55.30;;;;;;5096945;28;20362;-80
2022/10/20 06:14:27;;;;;;;8.23;5.75;;;15.20;55.20;;;;;;5097321;28;20032;-80
2022/10/20 06:16:54;;;;;;;11.55;6.15;;;15.40;55.00;;;;;;5094002;28;20521;-80
2022/10/20 06:19:20;;;;;;;8.60;5.80;;;15.50;55.00;;;;;;5096646;28;20107;-80
2022/10/20 06:21:46;;;;;;;16.05;6.70;;;15.60;54.90;;;;;;5086935;28;20012;-81
2022/10/20 06:24:12;;;;;;;10.90;6.05;;;15.60;54.80;;;;;;5076405;28;20021;-80
2022/10/20 06:26:38;;;;;;;9.80;5.90;;;15.70;54.70;;;;;;5085313;28;20107;-79
2022/10/20 06:29:06;;;;;;;9.10;6.10;;;15.60;55.50;;;;;;5087229;28;20382;-80
2022/10/20 06:31:41;;;;;;;9.45;6.45;;;15.50;55.20;;;;;;5088628;28;20032;-79
2022/10/20 06:34:11;;;;;;;9.02;5.97;;;15.50;55.70;;;;;;5088373;28;20032;-80
2022/10/20 06:36:38;;;;;;;10.95;7.20;;;15.60;55.60;;;;;;5086302;28;20039;-80
2022/10/20 06:39:05;;;;;;;11.32;6.50;;;15.50;55.60;;;;;;5091664;28;20030;-79
2022/10/20 06:41:31;;;;;;;12.55;6.78;;;15.70;55.70;;;;;;5093061;28;20081;-80
2022/10/20 06:43:58;;;;;;;12.43;7.00;;;15.80;55.50;;;;;;5094523;28;20031;-80
2022/10/20 06:46:26;;;;;;;11.25;6.93;;;15.80;55.70;;;;;;5076891;28;20016;-80
2022/10/20 06:48:52;;;;;;;17.40;9.13;;;15.80;55.60;;;;;;5093086;28;20381;-80
2022/10/20 06:51:20;;;;;;;13.05;7.97;;;15.90;55.60;;;;;;5088390;28;20020;-81
2022/10/20 06:53:47;;;;;;;11.43;6.50;;;15.60;56.20;;;;;;5079287;28;20088;-81
2022/10/20 06:56:22;;;;;;;15.23;7.47;;;15.80;56.10;;;;;;5091964;28;20467;-79
2022/10/20 06:58:51;;;;;;;39.92;33.25;;;15.90;56.00;;;;;;5093028;28;20035;-79
2022/10/20 07:01:38;;;;;;;10.15;6.63;;;16.00;55.80;;;;;;5094831;28;20020;-80
2022/10/20 07:04:08;;;;;;;9.68;6.13;;;16.20;55.90;;;;;;5094352;28;20008;-79
2022/10/20 07:06:37;;;;;;;12.68;6.88;;;16.30;55.40;;;;;;5094664;28;20036;-81
2022/10/20 07:09:06;;;;;;;9.65;6.50;;;16.00;56.50;;;;;;5093509;28;20031;-80
2022/10/20 07:11:33;;;;;;;11.13;6.75;;;16.10;56.40;;;;;;5091928;28;20019;-80
2022/10/20 07:14:00;;;;;;;9.10;5.50;;;16.30;56.10;;;;;;5092794;28;20055;-80
2022/10/20 07:16:28;;;;;;;10.52;5.80;;;16.40;55.70;;;;;;5092887;28;20107;-79
2022/10/20 07:18:54;;;;;;;8.40;5.90;;;16.70;55.20;;;;;;5091620;28;20024;-80
2022/10/20 07:21:22;;;;;;;11.63;6.18;;;16.80;55.20;;;;;;5092918;28;20012;-81
2022/10/20 07:23:49;;;;;;;9.20;5.68;;;16.80;55.00;;;;;;5085840;28;20350;-79
2022/10/20 07:26:26;;;;;;;9.13;6.25;;;16.70;55.30;;;;;;5095352;28;20454;-81
2022/10/20 07:28:55;;;;;;;12.73;5.82;;;16.90;55.30;;;;;;5095215;28;20032;-84
2022/10/20 07:31:28;;;;;;;8.50;5.60;;;16.80;55.20;;;;;;5095721;28;20454;-81
2022/10/20 07:33:57;;;;;;;9.10;5.93;;;17.00;55.00;;;;;;5094987;28;20024;-80
2022/10/20 07:36:29;;;;;;;8.80;5.50;;;17.20;54.70;;;;;;5093968;28;20024;-80
2022/10/20 07:38:56;;;;;;;9.48;6.15;;;17.10;54.60;;;;;;5094817;28;20098;-80
2022/10/20 07:41:23;;;;;;;11.27;6.57;;;17.30;55.20;;;;;;5093566;28;20028;-83
2022/10/20 07:43:48;;;;;;;10.10;6.22;;;17.30;54.40;;;;;;5075677;28;20020;-84
2022/10/20 07:46:14;;;;;;;12.57;6.72;;;17.20;55.40;;;;;;5075414;28;20388;-84
2022/10/20 07:48:40;;;;;;;9.90;6.13;;;17.30;54.90;;;;;;5085332;28;20047;-84
2022/10/20 07:51:23;;;;;;;8.65;6.10;;;17.30;54.70;;;;;;5075372;28;20074;-82
2022/10/20 07:53:51;;;;;;;10.05;6.50;;;17.30;55.10;;;;;;5066951;28;20032;-80
2022/10/20 07:56:16;;;;;;;11.20;6.35;;;17.40;55.20;;;;;;5091464;28;20016;-80
2022/10/20 07:58:43;;;;;;;10.27;6.35;;;17.80;55.00;;;;;;5087622;28;20073;-81
2022/10/20 08:01:09;;;;;;;9.98;6.43;;;17.90;54.80;;;;;;5092414;28;20366;-81
2022/10/20 08:03:35;;;;;;;11.18;6.38;;;18.00;54.70;;;;;;5093336;28;20024;-79
2022/10/20 08:06:01;;;;;;;11.75;5.75;;;18.20;54.50;;;;;;5093627;28;20024;-81
2022/10/20 08:08:27;;;;;;;11.38;5.80;;;18.00;54.70;;;;;;5093497;28;20031;-80
2022/10/20 08:10:53;;;;;;;11.30;6.13;;;18.00;54.90;;;;;;5088191;28;20008;-83
2022/10/20 08:13:19;;;;;;;10.10;5.57;;;18.00;54.70;;;;;;5092812;28;20028;-81
2022/10/20 08:15:44;;;;;;;12.32;6.30;;;18.20;54.50;;;;;;5094362;28;20062;-81
2022/10/20 08:18:10;;;;;;;13.57;6.40;;;18.50;54.30;;;;;;5092328;28;20030;-81
2022/10/20 08:20:36;;;;;;;9.30;6.40;;;18.60;53.90;;;;;;5075502;28;20494;-82
2022/10/20 08:23:02;;;;;;;8.80;6.13;;;17.70;54.90;;;;;;5074253;28;20111;-82
2022/10/20 08:25:28;;;;;;;11.43;6.15;;;17.60;55.70;;;;;;5073956;28;20436;-80
2022/10/20 08:27:53;;;;;;;10.48;6.30;;;17.80;55.10;;;;;;5093417;28;20555;-80
2022/10/20 08:30:19;;;;;;;14.55;6.05;;;18.10;54.80;;;;;;5081281;28;20060;-80
2022/10/20 08:32:45;;;;;;;13.38;7.30;;;18.10;55.30;;;;;;5071880;28;20028;-82
2022/10/20 08:35:10;;;;;;;12.60;6.28;;;18.40;54.70;;;;;;5073112;28;20370;-85
2022/10/20 08:37:36;;;;;;;14.05;7.05;;;18.40;54.90;;;;;;5074018;28;20363;-82
2022/10/20 08:40:03;;;;;;;9.85;6.45;;;18.30;55.10;;;;;;5072563;28;20017;-82
2022/10/20 08:42:31;;;;;;;10.48;5.70;;;18.40;55.30;;;;;;5073949;28;20021;-84
2022/10/20 08:44:59;;;;;;;9.52;5.93;;;18.80;54.90;;;;;;5073811;28;20035;-82
2022/10/20 08:47:28;;;;;;;9.88;5.97;;;19.10;54.50;;;;;;5073624;28;20459;-82
2022/10/20 08:49:55;;;;;;;8.23;5.50;;;19.50;53.90;;;;;;5074048;28;20021;-82
2022/10/20 08:52:22;;;;;;;8.65;5.60;;;19.70;52.50;;;;;;5072941;28;20111;-81
2022/10/20 08:54:53;;;;;;;8.10;5.47;;;19.50;53.40;;;;;;5072115;28;20025;-82
2022/10/20 08:57:23;;;;;;;10.02;5.40;;;19.60;53.80;;;;;;5072540;28;20017;-83
2022/10/20 08:59:54;;;;;;;8.32;5.72;;;19.90;53.00;;;;;;5072714;28;20020;-81
2022/10/20 09:02:21;;;;;;;8.07;5.50;;;20.20;52.20;;;;;;5073505;28;20100;-83
2022/10/20 09:04:51;;;;;;;11.20;5.35;;;20.50;52.10;;;;;;5072404;28;20107;-86
2022/10/20 09:07:28;;;;;;;12.57;5.68;;;20.60;51.20;;;;;;5073696;28;20077;-79
2022/10/20 09:10:02;;;;;;;9.93;5.47;;;20.40;51.40;;;;;;5073701;28;20474;-80
2022/10/20 09:12:28;;;;;;;7.25;4.95;;;19.90;51.30;;;;;;5074002;28;20021;-80
2022/10/20 09:14:56;;;;;;;9.68;5.13;;;19.80;51.50;;;;;;5074967;28;20017;-81
2022/10/20 09:17:22;;;;;;;8.32;4.55;;;19.70;52.50;;;;;;5073513;28;20162;-80
2022/10/20 09:19:54;;;;;;;11.30;5.30;;;19.50;51.90;;;;;;5071961;28;20115;-81
2022/10/20 09:22:23;;;;;;;6.85;4.68;;;19.80;52.50;;;;;;5072205;28;20028;-87
2022/10/20 09:24:51;;;;;;;9.27;4.97;;;20.00;51.20;;;;;;5073481;28;20095;-85
2022/10/20 09:27:38;;;;;;;7.97;4.50;;;19.80;51.40;;;;;;5073264;28;20017;-83
2022/10/20 09:30:32;;;;;;;9.35;5.20;;;19.50;52.60;;;;;;5073507;28;20071;-80
2022/10/20 09:32:59;;;;;;;9.32;5.00;;;19.80;51.90;;;;;;5072024;28;20466;-82
2022/10/20 09:35:35;;;;;;;6.90;5.05;;;20.00;51.90;;;;;;5073223;28;20032;-79
2022/10/20 09:38:09;;;;;;;9.82;5.05;;;19.80;52.40;;;;;;5073018;28;20035;-79
2022/10/20 09:40:42;;;;;;;12.02;6.13;;;20.30;51.70;;;;;;5071840;28;20013;-82
2022/10/20 09:43:14;;;;;;;6.85;4.82;;;20.20;51.00;;;;;;5073229;28;20032;-82
2022/10/20 09:45:51;;;;;;;7.47;4.85;;;19.90;51.90;;;;;;5072071;28;20494;-80
2022/10/20 09:48:30;;;;;;;9.35;5.00;;;20.30;51.40;;;;;;5071748;28;20046;-80
2022/10/20 09:50:57;;;;;;;10.27;5.50;;;20.70;50.90;;;;;;5073204;28;20013;-85
2022/10/20 09:53:29;;;;;;;8.32;5.82;;;20.20;50.50;;;;;;5072844;28;20055;-80
2022/10/20 09:55:55;;;;;;;9.45;5.75;;;20.40;51.00;;;;;;5073327;28;20070;-81
2022/10/20 09:58:27;;;;;;;9.25;5.40;;;21.00;50.50;;;;;;5073037;28;20017;-84
2022/10/20 10:01:14;;;;;;;11.02;5.97;;;21.80;49.90;;;;;;5072636;28;20108;-83
2022/10/20 10:03:45;;;;;;;8.90;5.63;;;21.20;49.00;;;;;;5073224;28;20013;-81
2022/10/20 10:06:19;;;;;;;10.20;5.45;;;20.40;51.00;;;;;;5072059;28;20024;-80
2022/10/20 10:08:46;;;;;;;10.10;5.78;;;20.90;51.00;;;;;;5071679;28;20036;-79
2022/10/20 10:11:20;;;;;;;8.73;5.82;;;20.90;49.80;;;;;;5071687;28;20070;-84
2022/10/20 10:13:49;;;;;;;9.00;5.97;;;20.60;50.60;;;;;;5071321;28;20021;-80
2022/10/20 10:16:25;;;;;;;10.98;6.40;;;20.50;50.80;;;;;;5072353;28;20498;-84
2022/10/20 10:19:01;;;;;;;12.25;6.28;;;20.80;50.10;;;;;;5071695;28;20048;-82
2022/10/20 10:21:42;;;;;;;9.30;5.72;;;20.80;49.60;;;;;;5071648;28;20021;-84
2022/10/20 10:24:29;;;;;;;10.05;6.10;;;20.30;50.30;;;;;;5073199;28;20380;-88
2022/10/20 10:26:55;;;;;;;12.05;6.68;;;20.50;51.10;;;;;;5071548;28;20032;-83
2022/10/20 10:29:27;;;;;;;9.13;5.47;;;20.80;49.80;;;;;;5071664;28;20028;-82
2022/10/20 10:32:28;;;;;;;8.15;5.95;;;20.90;49.80;;;;;;5072623;28;20013;-82
2022/10/20 10:35:24;;;;;;;9.65;5.57;;;21.30;49.60;;;;;;5062079;28;20071;-80
2022/10/20 10:37:52;;;;;;;11.20;5.57;;;21.50;49.00;;;;;;5072787;28;20099;-87
2022/10/20 10:40:42;;;;;;;8.80;5.32;;;21.70;48.80;;;;;;5072090;28;20049;-80
2022/10/20 10:43:36;;;;;;;9.77;4.50;;;21.80;48.80;;;;;;5058067;28;20370;-87
2022/10/20 10:46:05;;;;;;;9.68;4.25;;;22.40;47.90;;;;;;5073064;28;20453;-82
2022/10/20 10:48:46;;;;;;;5.82;3.67;;;21.70;48.20;;;;;;5072092;28;20036;-81
2022/10/20 10:51:55;;;;;;;8.25;4.10;;;21.60;48.80;;;;;;5071222;28;20023;-86
2022/10/20 10:54:30;;;;;;;8.52;4.70;;;21.90;48.30;;;;;;5071493;28;20033;-82
2022/10/20 10:57:09;;;;;;;8.13;4.05;;;22.50;48.30;;;;;;5076064;28;20017;-82
2022/10/20 10:59:40;;;;;;;8.00;4.78;;;22.80;48.20;;;;;;5076059;28;20021;-81
2022/10/20 11:02:37;;;;;;;6.15;3.63;;;22.90;47.50;;;;;;5075152;28;20025;-86
2022/10/20 11:05:40;;;;;;;7.15;4.13;;;22.40;46.80;;;;;;5076542;28;20028;-83
2022/10/20 11:08:25;;;;;;;8.70;4.18;;;21.40;48.00;;;;;;5074884;28;20024;-89
2022/10/20 11:11:06;;;;;;;6.88;4.82;;;21.30;49.20;;;;;;5074315;28;20374;-82
2022/10/20 11:13:43;;;;;;;8.55;4.80;;;21.50;48.80;;;;;;5076149;28;20048;-84
2022/10/20 11:16:24;;;;;;;7.50;5.00;;;21.90;49.10;;;;;;5074915;28;20029;-82
2022/10/20 11:18:52;;;;;;;;;;;21.90;48.50;;;;;;5076024;28;20027;-81
2022/10/20 11:21:21;;;;;;;7.20;4.60;;;21.60;48.30;;;;;;5074065;28;20319;-83
2022/10/20 11:24:12;;;;;;;5.65;4.00;;;21.60;48.50;;;;;;5074559;28;20481;-81
2022/10/20 11:26:49;;;;;;;7.50;4.47;;;21.70;49.00;;;;;;4977689;28;20134;-82
2022/10/20 11:29:28;;;;;;;6.78;4.05;;;21.90;48.80;;;;;;4977913;28;20030;-84
2022/10/20 11:32:09;;;;;;;7.22;4.22;;;22.10;48.50;;;;;;4994467;28;20035;-84
2022/10/20 11:35:09;;;;;;;9.57;4.68;;;22.00;48.30;;;;;;4994134;28;20077;-83
2022/10/20 11:37:49;;;;;;;8.43;4.22;;;22.10;48.30;;;;;;4977869;28;20038;-82
2022/10/20 11:40:25;;;;;;;6.82;3.80;;;22.30;47.40;;;;;;4977818;28;20026;-82
2022/10/20 11:43:09;;;;;;;6.10;3.95;;;21.70;48.20;;;;;;4977965;28;20030;-82
2022/10/20 11:45:44;;;;;;;8.48;4.43;;;21.70;47.60;;;;;;4994163;28;20029;-81
2022/10/20 11:48:29;;;;;;;9.15;4.70;;;21.50;48.30;;;;;;4977364;28;20381;-82
2022/10/20 11:51:03;;;;;;;7.03;4.35;;;21.20;48.40;;;;;;4977277;28;20042;-82
2022/10/20 11:53:36;;;;;;;9.15;4.60;;;21.10;49.70;;;;;;4977359;28;20026;-82
2022/10/20 11:56:17;;;;;;;7.25;4.72;;;21.40;50.00;;;;;;4993589;28;20026;-82
2022/10/20 11:58:54;;;;;;;8.98;5.60;;;21.70;48.90;;;;;;4977477;28;20117;-82
2022/10/20 12:01:50;;;;;;;8.63;4.43;;;21.80;48.60;;;;;;4977180;28;20024;-81
2022/10/20 12:04:34;;;;;;;8.05;4.55;;;20.90;48.20;;;;;;5057930;28;20036;-81
2022/10/20 12:07:40;;;;;;;6.43;4.57;;;20.90;49.70;;;;;;5073682;28;20021;-80
2022/10/20 12:10:26;;;;;;;8.90;4.20;;;21.10;48.60;;;;;;5074494;28;20042;-80
2022/10/20 12:12:57;;;;;;;9.65;4.70;;;21.50;48.50;;;;;;5074561;28;20063;-83
2022/10/20 12:15:24;;;;;;;;;;;21.40;48.80;;;;;;5073584;28;20017;-81
2022/10/20 12:17:52;;;;;;;6.65;4.28;;;21.50;48.90;;;;;;5073183;28;19900;-81
2022/10/20 12:20:20;;;;;;;6.20;3.97;;;21.70;48.00;;;;;;5072799;28;20063;-81
2022/10/20 12:22:49;;;;;;;8.43;3.90;;;21.90;48.00;;;;;;5073169;28;20024;-82
2022/10/20 12:25:24;;;;;;;6.53;3.90;;;22.00;48.20;;;;;;5073201;28;20017;-82
2022/10/20 12:28:23;;;;;;;7.80;4.68;;;22.30;48.00;;;;;;5073879;28;20402;-85
2022/10/20 12:30:55;;;;;;;5.53;3.87;;;22.10;47.10;;;;;;5074130;28;20092;-81
2022/10/20 12:33:58;;;;;;;6.32;4.20;;;21.90;48.10;;;;;;5072816;28;20024;-81
2022/10/20 12:36:35;;;;;;;6.88;3.88;;;21.80;47.80;;;;;;5067483;28;20491;-81
2022/10/20 12:39:16;;;;;;;7.47;3.80;;;22.00;47.30;;;;;;5072599;28;20409;-80
2022/10/20 12:41:55;;;;;;;5.32;3.92;;;22.30;47.00;;;;;;5073736;28;20025;-83
2022/10/20 12:44:21;;;;;;;6.32;3.90;;;22.30;47.40;;;;;;5073667;28;20198;-83
2022/10/20 12:46:56;;;;;;;6.93;3.97;;;22.50;46.60;;;;;;5074166;28;20370;-79
2022/10/20 12:49:37;;;;;;;7.47;3.70;;;22.50;46.40;;;;;;5073687;28;20051;-81
2022/10/20 12:52:06;;;;;;;8.02;3.42;;;22.30;46.70;;;;;;5072443;28;20462;-81
2022/10/20 12:54:37;;;;;;;5.72;3.80;;;22.40;46.80;;;;;;5073775;28;20470;-81
2022/10/20 12:57:40;;;;;;;8.60;3.80;;;22.60;46.80;;;;;;5072550;28;20035;-82
2022/10/20 13:00:20;;;;;;;7.00;3.88;;;22.70;46.30;;;;;;5069928;28;20116;-82
2022/10/20 13:02:49;;;;;;;5.70;3.55;;;22.70;46.00;;;;;;5073502;28;20020;-82
2022/10/20 13:05:15;;;;;;;6.45;3.72;;;22.30;46.90;;;;;;5075059;28;20024;-81
2022/10/20 13:07:46;;;;;;;5.80;3.00;;;22.10;47.80;;;;;;5071900;28;20070;-81